Portland, Oregon
Traffic Map
Current Weather Conditions
Portland, Oregon
Broken Clouds
Broken Clouds
37°
Feels Like: 28°
Wind Chill: 28° Ceiling: 5500
Heat Index: 37° Visibility: 10mi
Dew Point: 35° Wind: 14mph
Humidity: 93% Direction: 110° (ESE)
Pressure: 29.47in Gusts: 0mph
Raw Report DataKPDX 200553Z 11012KT 10SM BKN055 BKN240 03/02 A2947 RMK AO2 SLP980 60000 T00280017 10106 20028 58027
Traffic Incident Summary
Active as of:
Severity:
Category:
InformationThere was an issue retrieving the traffic information for this location. Please try a different location or try again shortly.
Advertisements
Track Severe Weather on mobile